sensor_id;sensor_type;location;lat;lon;timestamp;pressure;altitude;pressure_sealevel;temperature;humidity
69153;BME280;56261;51.580;4.578;2024-02-28T00:01:50;102169.94;;;3.33;100.00
69153;BME280;56261;51.580;4.578;2024-02-28T00:04:16;102176.06;;;3.33;100.00
69153;BME280;56261;51.580;4.578;2024-02-28T00:06:41;102159.94;;;3.24;100.00
69153;BME280;56261;51.580;4.578;2024-02-28T00:09:06;102170.66;;;3.21;100.00
69153;BME280;56261;51.580;4.578;2024-02-28T00:11:32;102176.47;;;3.11;100.00
69153;BME280;56261;51.580;4.578;2024-02-28T00:13:57;102173.56;;;3.16;100.00
69153;BME280;56261;51.580;4.578;2024-02-28T00:16:25;102159.81;;;3.11;100.00
69153;BME280;56261;51.580;4.578;2024-02-28T00:18:50;102163.34;;;3.10;100.00
69153;BME280;56261;51.580;4.578;2024-02-28T00:21:16;102168.47;;;3.13;100.00
69153;BME280;56261;51.580;4.578;2024-02-28T00:23:42;102171.25;;;3.10;100.00
69153;BME280;56261;51.580;4.578;2024-02-28T00:26:07;102170.50;;;3.08;100.00
69153;BME280;56261;51.580;4.578;2024-02-28T00:28:32;102163.53;;;3.07;100.00
69153;BME280;56261;51.580;4.578;2024-02-28T00:30:58;102164.72;;;3.01;100.00
69153;BME280;56261;51.580;4.578;2024-02-28T00:33:23;102166.53;;;3.01;100.00
69153;BME280;56261;51.580;4.578;2024-02-28T00:35:48;102166.25;;;3.05;100.00
69153;BME280;56261;51.580;4.578;2024-02-28T00:38:14;102165.88;;;2.97;100.00
69153;BME280;56261;51.580;4.578;2024-02-28T00:40:39;102164.16;;;2.96;100.00
69153;BME280;56261;51.580;4.578;2024-02-28T00:43:04;102157.34;;;2.92;100.00
69153;BME280;56261;51.580;4.578;2024-02-28T00:45:30;102154.88;;;3.05;100.00
69153;BME280;56261;51.580;4.578;2024-02-28T00:47:55;102164.38;;;3.07;100.00
69153;BME280;56261;51.580;4.578;2024-02-28T00:50:21;102153.19;;;3.04;100.00
69153;BME280;56261;51.580;4.578;2024-02-28T00:52:46;102160.59;;;2.97;100.00
69153;BME280;56261;51.580;4.578;2024-02-28T00:55:11;102154.47;;;2.97;100.00
69153;BME280;56261;51.580;4.578;2024-02-28T00:57:37;102160.41;;;3.00;100.00
69153;BME280;56261;51.580;4.578;2024-02-28T01:00:02;102161.03;;;2.89;100.00
69153;BME280;56261;51.580;4.578;2024-02-28T01:02:28;102159.22;;;2.90;100.00
69153;BME280;56261;51.580;4.578;2024-02-28T01:04:53;102144.72;;;2.83;100.00
69153;BME280;56261;51.580;4.578;2024-02-28T01:07:18;102150.16;;;2.80;100.00
69153;BME280;56261;51.580;4.578;2024-02-28T01:09:44;102154.09;;;2.73;100.00
69153;BME280;56261;51.580;4.578;2024-02-28T01:12:09;102147.34;;;2.83;100.00
69153;BME280;56261;51.580;4.578;2024-02-28T01:14:35;102150.94;;;2.82;100.00
69153;BME280;56261;51.580;4.578;2024-02-28T01:17:00;102147.88;;;2.74;100.00
69153;BME280;56261;51.580;4.578;2024-02-28T01:19:26;102148.91;;;2.71;100.00
69153;BME280;56261;51.580;4.578;2024-02-28T01:21:51;102151.78;;;2.66;100.00
69153;BME280;56261;51.580;4.578;2024-02-28T01:24:17;102151.03;;;2.64;100.00
69153;BME280;56261;51.580;4.578;2024-02-28T01:26:42;102163.59;;;2.59;100.00
69153;BME280;56261;51.580;4.578;2024-02-28T01:29:07;102157.47;;;2.43;100.00
69153;BME280;56261;51.580;4.578;2024-02-28T01:31:33;102155.44;;;2.48;100.00
69153;BME280;56261;51.580;4.578;2024-02-28T01:33:58;102154.84;;;2.43;100.00
69153;BME280;56261;51.580;4.578;2024-02-28T01:36:23;102155.19;;;2.53;100.00
69153;BME280;56261;51.580;4.578;2024-02-28T01:38:49;102157.81;;;2.53;100.00
69153;BME280;56261;51.580;4.578;2024-02-28T01:41:14;102152.47;;;2.54;100.00
69153;BME280;56261;51.580;4.578;2024-02-28T01:43:40;102153.84;;;2.61;100.00
69153;BME280;56261;51.580;4.578;2024-02-28T01:46:18;102149.66;;;2.57;100.00
69153;BME280;56261;51.580;4.578;2024-02-28T01:48:46;102146.16;;;2.57;100.00
69153;BME280;56261;51.580;4.578;2024-02-28T01:51:12;102155.84;;;2.56;100.00
69153;BME280;56261;51.580;4.578;2024-02-28T01:53:38;102152.63;;;2.67;100.00
69153;BME280;56261;51.580;4.578;2024-02-28T01:56:03;102155.84;;;2.56;100.00
69153;BME280;56261;51.580;4.578;2024-02-28T01:58:29;102158.94;;;2.48;100.00
69153;BME280;56261;51.580;4.578;2024-02-28T02:00:55;102157.72;;;2.38;100.00
69153;BME280;56261;51.580;4.578;2024-02-28T02:03:21;102151.16;;;2.29;100.00
69153;BME280;56261;51.580;4.578;2024-02-28T02:05:47;102155.41;;;2.16;100.00
69153;BME280;56261;51.580;4.578;2024-02-28T02:08:12;102153.38;;;2.21;100.00
69153;BME280;56261;51.580;4.578;2024-02-28T02:10:37;102160.78;;;2.31;100.00
69153;BME280;56261;51.580;4.578;2024-02-28T02:13:06;102142.59;;;2.26;100.00
69153;BME280;56261;51.580;4.578;2024-02-28T02:15:32;102148.53;;;2.29;100.00
69153;BME280;56261;51.580;4.578;2024-02-28T02:17:57;102150.91;;;2.18;100.00
69153;BME280;56261;51.580;4.578;2024-02-28T02:20:25;102152.03;;;2.30;100.00
69153;BME280;56261;51.580;4.578;2024-02-28T02:22:52;102142.00;;;2.21;100.00
69153;BME280;56261;51.580;4.578;2024-02-28T02:25:18;102156.94;;;2.20;100.00
69153;BME280;56261;51.580;4.578;2024-02-28T02:27:43;102151.84;;;2.17;100.00
69153;BME280;56261;51.580;4.578;2024-02-28T02:30:09;102151.25;;;2.12;100.00
69153;BME280;56261;51.580;4.578;2024-02-28T02:32:34;102146.84;;;2.13;100.00
69153;BME280;56261;51.580;4.578;2024-02-28T02:34:59;102152.09;;;2.13;100.00
69153;BME280;56261;51.580;4.578;2024-02-28T02:37:25;102148.84;;;2.07;100.00
69153;BME280;56261;51.580;4.578;2024-02-28T02:39:51;102151.41;;;2.09;100.00
69153;BME280;56261;51.580;4.578;2024-02-28T02:42:17;102154.34;;;2.03;100.00
69153;BME280;56261;51.580;4.578;2024-02-28T02:44:42;102154.59;;;1.98;100.00
69153;BME280;56261;51.580;4.578;2024-02-28T02:47:08;102171.41;;;1.96;100.00
69153;BME280;56261;51.580;4.578;2024-02-28T02:49:33;102167.16;;;1.93;100.00
69153;BME280;56261;51.580;4.578;2024-02-28T02:51:59;102160.03;;;1.95;100.00
69153;BME280;56261;51.580;4.578;2024-02-28T02:54:24;102165.47;;;1.92;100.00
69153;BME280;56261;51.580;4.578;2024-02-28T02:56:49;102156.56;;;1.95;100.00
69153;BME280;56261;51.580;4.578;2024-02-28T02:59:15;102160.28;;;1.91;100.00
69153;BME280;56261;51.580;4.578;2024-02-28T03:01:40;102157.72;;;1.89;100.00
69153;BME280;56261;51.580;4.578;2024-02-28T03:04:05;102159.50;;;1.89;100.00
69153;BME280;56261;51.580;4.578;2024-02-28T03:06:31;102152.59;;;2.03;100.00
69153;BME280;56261;51.580;4.578;2024-02-28T03:08:57;102155.91;;;2.07;100.00
69153;BME280;56261;51.580;4.578;2024-02-28T03:11:23;102150.31;;;2.13;100.00
69153;BME280;56261;51.580;4.578;2024-02-28T03:13:48;102152.13;;;2.28;100.00
69153;BME280;56261;51.580;4.578;2024-02-28T03:16:14;102152.47;;;2.38;100.00
69153;BME280;56261;51.580;4.578;2024-02-28T03:18:39;102146.59;;;2.33;100.00
69153;BME280;56261;51.580;4.578;2024-02-28T03:21:04;102139.28;;;2.38;100.00
69153;BME280;56261;51.580;4.578;2024-02-28T03:23:30;102131.25;;;2.41;100.00
69153;BME280;56261;51.580;4.578;2024-02-28T03:25:55;102134.72;;;2.42;100.00
69153;BME280;56261;51.580;4.578;2024-02-28T03:28:20;102130.38;;;2.41;100.00
69153;BME280;56261;51.580;4.578;2024-02-28T03:30:46;102136.66;;;2.38;100.00
69153;BME280;56261;51.580;4.578;2024-02-28T03:33:11;102134.03;;;2.38;100.00
69153;BME280;56261;51.580;4.578;2024-02-28T03:35:36;102139.22;;;2.40;100.00
69153;BME280;56261;51.580;4.578;2024-02-28T03:38:02;102135.22;;;2.33;100.00
69153;BME280;56261;51.580;4.578;2024-02-28T03:40:27;102139.47;;;2.35;100.00
69153;BME280;56261;51.580;4.578;2024-02-28T03:42:53;102143.63;;;2.39;100.00
69153;BME280;56261;51.580;4.578;2024-02-28T03:45:19;102144.03;;;2.32;100.00
69153;BME280;56261;51.580;4.578;2024-02-28T03:47:45;102136.66;;;2.38;100.00
69153;BME280;56261;51.580;4.578;2024-02-28T03:50:10;102135.47;;;2.28;100.00
69153;BME280;56261;51.580;4.578;2024-02-28T03:52:36;102131.66;;;2.34;100.00
69153;BME280;56261;51.580;4.578;2024-02-28T03:55:01;102136.41;;;2.27;100.00
69153;BME280;56261;51.580;4.578;2024-02-28T03:57:27;102125.72;;;2.46;100.00
69153;BME280;56261;51.580;4.578;2024-02-28T03:59:52;102131.06;;;2.44;100.00
69153;BME280;56261;51.580;4.578;2024-02-28T04:02:17;102132.94;;;2.42;100.00
69153;BME280;56261;51.580;4.578;2024-02-28T04:04:43;102134.13;;;2.53;100.00
69153;BME280;56261;51.580;4.578;2024-02-28T04:07:08;102133.25;;;2.52;100.00
69153;BME280;56261;51.580;4.578;2024-02-28T04:09:33;102129.13;;;2.48;100.00
69153;BME280;56261;51.580;4.578;2024-02-28T04:11:59;102122.22;;;2.45;100.00
69153;BME280;56261;51.580;4.578;2024-02-28T04:14:24;102124.75;;;2.63;100.00
69153;BME280;56261;51.580;4.578;2024-02-28T04:16:49;102131.81;;;2.62;100.00
69153;BME280;56261;51.580;4.578;2024-02-28T04:19:16;102128.66;;;2.72;100.00
69153;BME280;56261;51.580;4.578;2024-02-28T04:21:41;102120.84;;;2.70;100.00
69153;BME280;56261;51.580;4.578;2024-02-28T04:24:07;102124.88;;;2.61;100.00
69153;BME280;56261;51.580;4.578;2024-02-28T04:26:33;102135.75;;;2.55;100.00
69153;BME280;56261;51.580;4.578;2024-02-28T04:28:59;102126.22;;;2.53;100.00
69153;BME280;56261;51.580;4.578;2024-02-28T04:31:24;102136.06;;;2.49;100.00
69153;BME280;56261;51.580;4.578;2024-02-28T04:33:49;102135.75;;;2.55;100.00
69153;BME280;56261;51.580;4.578;2024-02-28T04:36:15;102143.53;;;2.57;100.00
69153;BME280;56261;51.580;4.578;2024-02-28T04:38:41;102147.13;;;2.56;100.00
69153;BME280;56261;51.580;4.578;2024-02-28T04:41:06;102158.50;;;2.56;100.00
69153;BME280;56261;51.580;4.578;2024-02-28T04:43:32;102158.75;;;2.52;100.00
69153;BME280;56261;51.580;4.578;2024-02-28T04:45:57;102160.78;;;2.62;100.00
69153;BME280;56261;51.580;4.578;2024-02-28T04:48:22;102165.47;;;2.73;100.00
69153;BME280;56261;51.580;4.578;2024-02-28T04:50:48;102164.09;;;2.82;100.00
69153;BME280;56261;51.580;4.578;2024-02-28T04:53:13;102167.91;;;2.92;100.00
69153;BME280;56261;51.580;4.578;2024-02-28T04:55:39;102179.13;;;2.96;100.00
69153;BME280;56261;51.580;4.578;2024-02-28T04:58:04;102185.75;;;3.03;100.00
69153;BME280;56261;51.580;4.578;2024-02-28T05:00:30;102183.03;;;3.04;100.00
69153;BME280;56261;51.580;4.578;2024-02-28T05:02:55;102174.09;;;3.07;100.00
69153;BME280;56261;51.580;4.578;2024-02-28T05:05:21;102187.72;;;3.29;100.00
69153;BME280;56261;51.580;4.578;2024-02-28T05:07:46;102170.53;;;3.38;100.00
69153;BME280;56261;51.580;4.578;2024-02-28T05:10:11;102168.91;;;3.36;100.00
69153;BME280;56261;51.580;4.578;2024-02-28T05:12:37;102177.13;;;3.45;100.00
69153;BME280;56261;51.580;4.578;2024-02-28T05:15:02;102168.47;;;3.43;100.00
69153;BME280;56261;51.580;4.578;2024-02-28T05:17:28;102172.41;;;3.50;100.00
69153;BME280;56261;51.580;4.578;2024-02-28T05:19:53;102175.25;;;3.47;100.00
69153;BME280;56261;51.580;4.578;2024-02-28T05:22:18;102170.66;;;3.51;100.00
69153;BME280;56261;51.580;4.578;2024-02-28T05:24:47;102183.56;;;3.56;100.00
69153;BME280;56261;51.580;4.578;2024-02-28T05:27:13;102175.59;;;3.71;100.00
69153;BME280;56261;51.580;4.578;2024-02-28T05:29:41;102188.31;;;3.65;100.00
69153;BME280;56261;51.580;4.578;2024-02-28T05:32:08;102181.44;;;3.77;100.00
69153;BME280;56261;51.580;4.578;2024-02-28T05:34:34;102179.91;;;3.72;100.00
69153;BME280;56261;51.580;4.578;2024-02-28T05:36:59;102175.50;;;3.87;100.00
69153;BME280;56261;51.580;4.578;2024-02-28T05:39:26;102169.38;;;4.01;100.00
69153;BME280;56261;51.580;4.578;2024-02-28T05:41:54;102169.09;;;3.91;100.00
69153;BME280;56261;51.580;4.578;2024-02-28T05:44:19;102181.75;;;4.01;100.00
69153;BME280;56261;51.580;4.578;2024-02-28T05:46:45;102171.09;;;4.02;100.00
69153;BME280;56261;51.580;4.578;2024-02-28T05:49:10;102167.13;;;4.09;100.00
69153;BME280;56261;51.580;4.578;2024-02-28T05:51:36;102165.69;;;4.04;100.00
69153;BME280;56261;51.580;4.578;2024-02-28T05:54:01;102172.78;;;4.18;100.00
69153;BME280;56261;51.580;4.578;2024-02-28T05:56:27;102169.47;;;4.14;100.00
69153;BME280;56261;51.580;4.578;2024-02-28T05:58:52;102163.94;;;4.04;100.00
69153;BME280;56261;51.580;4.578;2024-02-28T06:01:18;102164.47;;;4.24;100.00
69153;BME280;56261;51.580;4.578;2024-02-28T06:03:46;102154.69;;;4.11;100.00
69153;BME280;56261;51.580;4.578;2024-02-28T06:06:12;102177.22;;;4.03;100.00
69153;BME280;56261;51.580;4.578;2024-02-28T06:08:39;102172.38;;;4.24;100.00
69153;BME280;56261;51.580;4.578;2024-02-28T06:11:05;102153.84;;;4.11;100.00
69153;BME280;56261;51.580;4.578;2024-02-28T06:13:31;102165.34;;;4.10;100.00
69153;BME280;56261;51.580;4.578;2024-02-28T06:15:57;102167.03;;;4.11;100.00
69153;BME280;56261;51.580;4.578;2024-02-28T06:18:23;102169.66;;;4.25;100.00
69153;BME280;56261;51.580;4.578;2024-02-28T06:20:54;102171.09;;;4.31;100.00
69153;BME280;56261;51.580;4.578;2024-02-28T06:23:21;102174.75;;;4.28;100.00
69153;BME280;56261;51.580;4.578;2024-02-28T06:25:46;102169.47;;;4.28;100.00
69153;BME280;56261;51.580;4.578;2024-02-28T06:28:12;102165.25;;;4.11;100.00
69153;BME280;56261;51.580;4.578;2024-02-28T06:30:37;102170.34;;;4.29;100.00
69153;BME280;56261;51.580;4.578;2024-02-28T06:33:02;102179.28;;;4.26;100.00
69153;BME280;56261;51.580;4.578;2024-02-28T06:35:29;102172.31;;;4.25;100.00
69153;BME280;56261;51.580;4.578;2024-02-28T06:37:55;102185.78;;;4.35;100.00
69153;BME280;56261;51.580;4.578;2024-02-28T06:40:20;102178.81;;;4.34;100.00
69153;BME280;56261;51.580;4.578;2024-02-28T06:42:45;102183.44;;;4.45;100.00
69153;BME280;56261;51.580;4.578;2024-02-28T06:45:11;102204.16;;;4.51;100.00
69153;BME280;56261;51.580;4.578;2024-02-28T06:47:36;102203.88;;;4.41;100.00
69153;BME280;56261;51.580;4.578;2024-02-28T06:50:05;102217.75;;;4.45;100.00
69153;BME280;56261;51.580;4.578;2024-02-28T06:52:31;102212.38;;;4.46;100.00
69153;BME280;56261;51.580;4.578;2024-02-28T06:54:56;102218.03;;;4.54;100.00
69153;BME280;56261;51.580;4.578;2024-02-28T06:57:22;102216.72;;;4.47;100.00
69153;BME280;56261;51.580;4.578;2024-02-28T06:59:50;102215.41;;;4.40;100.00
69153;BME280;56261;51.580;4.578;2024-02-28T07:02:15;102228.78;;;4.51;100.00
69153;BME280;56261;51.580;4.578;2024-02-28T07:04:41;102235.75;;;4.52;100.00
69153;BME280;56261;51.580;4.578;2024-02-28T07:07:07;102234.47;;;4.45;100.00
69153;BME280;56261;51.580;4.578;2024-02-28T07:09:32;102230.84;;;4.46;100.00
69153;BME280;56261;51.580;4.578;2024-02-28T07:11:58;102232.75;;;4.44;100.00
69153;BME280;56261;51.580;4.578;2024-02-28T07:14:24;102228.13;;;4.48;100.00
69153;BME280;56261;51.580;4.578;2024-02-28T07:16:49;102223.81;;;4.47;100.00
69153;BME280;56261;51.580;4.578;2024-02-28T07:19:17;102234.53;;;4.58;100.00
69153;BME280;56261;51.580;4.578;2024-02-28T07:21:43;102223.34;;;4.40;100.00
69153;BME280;56261;51.580;4.578;2024-02-28T07:24:08;102220.78;;;4.39;100.00
69153;BME280;56261;51.580;4.578;2024-02-28T07:26:33;102224.94;;;4.43;100.00
69153;BME280;56261;51.580;4.578;2024-02-28T07:28:59;102240.88;;;4.41;100.00
69153;BME280;56261;51.580;4.578;2024-02-28T07:31:25;102232.19;;;4.39;100.00
69153;BME280;56261;51.580;4.578;2024-02-28T07:33:50;102232.56;;;4.33;100.00
69153;BME280;56261;51.580;4.578;2024-02-28T07:36:15;102243.59;;;4.25;100.00
69153;BME280;56261;51.580;4.578;2024-02-28T07:38:41;102244.16;;;4.30;100.00
69153;BME280;56261;51.580;4.578;2024-02-28T07:41:07;102241.91;;;4.39;100.00
69153;BME280;56261;51.580;4.578;2024-02-28T07:43:32;102235.13;;;4.34;100.00
69153;BME280;56261;51.580;4.578;2024-02-28T07:46:11;102240.97;;;4.25;100.00
69153;BME280;56261;51.580;4.578;2024-02-28T07:48:37;102249.47;;;4.45;100.00
69153;BME280;56261;51.580;4.578;2024-02-28T07:51:06;102245.88;;;4.31;100.00
69153;BME280;56261;51.580;4.578;2024-02-28T07:53:32;102252.84;;;4.32;100.00
69153;BME280;56261;51.580;4.578;2024-02-28T07:55:58;102252.09;;;4.30;100.00
69153;BME280;56261;51.580;4.578;2024-02-28T07:58:23;102254.44;;;4.35;100.00
69153;BME280;56261;51.580;4.578;2024-02-28T08:00:50;102265.56;;;4.26;100.00
69153;BME280;56261;51.580;4.578;2024-02-28T08:03:15;102272.66;;;4.40;100.00
69153;BME280;56261;51.580;4.578;2024-02-28T08:05:41;102281.81;;;4.48;100.00
69153;BME280;56261;51.580;4.578;2024-02-28T08:08:08;102279.38;;;4.45;100.00
69153;BME280;56261;51.580;4.578;2024-02-28T08:10:34;102288.69;;;4.51;100.00
69153;BME280;56261;51.580;4.578;2024-02-28T08:13:01;102276.53;;;4.48;100.00
69153;BME280;56261;51.580;4.578;2024-02-28T08:15:26;102279.28;;;4.47;100.00
69153;BME280;56261;51.580;4.578;2024-02-28T08:17:52;102278.41;;;4.46;100.00
69153;BME280;56261;51.580;4.578;2024-02-28T08:20:17;102283.16;;;4.55;100.00
69153;BME280;56261;51.580;4.578;2024-02-28T08:22:43;102280.31;;;4.58;100.00
69153;BME280;56261;51.580;4.578;2024-02-28T08:25:08;102285.84;;;4.68;100.00
69153;BME280;56261;51.580;4.578;2024-02-28T08:27:37;102290.84;;;4.73;100.00
69153;BME280;56261;51.580;4.578;2024-02-28T08:30:03;102296.63;;;4.65;100.00
69153;BME280;56261;51.580;4.578;2024-02-28T08:32:28;102295.31;;;4.72;100.00
69153;BME280;56261;51.580;4.578;2024-02-28T08:34:54;102291.81;;;4.72;100.00
69153;BME280;56261;51.580;4.578;2024-02-28T08:37:20;102292.44;;;4.75;100.00
69153;BME280;56261;51.580;4.578;2024-02-28T08:39:45;102292.19;;;4.80;100.00
69153;BME280;56261;51.580;4.578;2024-02-28T08:42:11;102282.47;;;4.81;100.00
69153;BME280;56261;51.580;4.578;2024-02-28T08:44:37;102284.91;;;4.98;100.00
69153;BME280;56261;51.580;4.578;2024-02-28T08:47:02;102288.31;;;5.27;100.00
69153;BME280;56261;51.580;4.578;2024-02-28T08:49:28;102288.09;;;5.30;100.00
69153;BME280;56261;51.580;4.578;2024-02-28T08:51:54;102284.78;;;5.27;100.00
69153;BME280;56261;51.580;4.578;2024-02-28T08:54:19;102284.91;;;5.25;100.00
69153;BME280;56261;51.580;4.578;2024-02-28T08:56:45;102283.19;;;5.24;100.00
69153;BME280;56261;51.580;4.578;2024-02-28T08:59:10;102277.50;;;5.57;100.00
69153;BME280;56261;51.580;4.578;2024-02-28T09:01:36;102277.88;;;5.78;100.00
69153;BME280;56261;51.580;4.578;2024-02-28T09:04:02;102264.88;;;5.88;100.00
69153;BME280;56261;51.580;4.578;2024-02-28T09:06:27;102255.78;;;5.92;100.00
69153;BME280;56261;51.580;4.578;2024-02-28T09:08:53;102259.84;;;6.11;100.00
69153;BME280;56261;51.580;4.578;2024-02-28T09:11:18;102268.72;;;6.35;100.00
69153;BME280;56261;51.580;4.578;2024-02-28T09:13:43;102264.19;;;6.24;100.00
69153;BME280;56261;51.580;4.578;2024-02-28T09:16:09;102277.75;;;6.20;100.00
69153;BME280;56261;51.580;4.578;2024-02-28T09:18:35;102281.47;;;6.30;100.00
69153;BME280;56261;51.580;4.578;2024-02-28T09:21:00;102279.13;;;6.26;100.00
69153;BME280;56261;51.580;4.578;2024-02-28T09:23:25;102286.34;;;6.36;100.00
69153;BME280;56261;51.580;4.578;2024-02-28T09:25:51;102282.47;;;6.79;100.00
69153;BME280;56261;51.580;4.578;2024-02-28T09:28:16;102286.16;;;6.89;100.00
69153;BME280;56261;51.580;4.578;2024-02-28T09:30:42;102290.78;;;6.61;100.00
69153;BME280;56261;51.580;4.578;2024-02-28T09:33:08;102300.50;;;7.23;100.00
69153;BME280;56261;51.580;4.578;2024-02-28T09:35:36;102296.69;;;7.39;100.00
69153;BME280;56261;51.580;4.578;2024-02-28T09:38:02;102297.28;;;7.55;100.00
69153;BME280;56261;51.580;4.578;2024-02-28T09:40:28;102293.31;;;7.61;100.00
69153;BME280;56261;51.580;4.578;2024-02-28T09:43:00;102294.19;;;7.61;100.00
69153;BME280;56261;51.580;4.578;2024-02-28T09:45:26;102292.59;;;7.35;100.00
69153;BME280;56261;51.580;4.578;2024-02-28T09:47:52;102296.41;;;7.06;100.00
69153;BME280;56261;51.580;4.578;2024-02-28T09:50:18;102294.16;;;7.13;100.00
69153;BME280;56261;51.580;4.578;2024-02-28T09:52:44;102284.88;;;6.95;100.00
69153;BME280;56261;51.580;4.578;2024-02-28T09:55:10;102284.91;;;6.82;100.00
69153;BME280;56261;51.580;4.578;2024-02-28T09:57:36;102277.84;;;7.06;100.00
69153;BME280;56261;51.580;4.578;2024-02-28T10:00:03;102282.28;;;7.06;100.00
69153;BME280;56261;51.580;4.578;2024-02-28T10:02:30;102281.28;;;7.20;100.00
69153;BME280;56261;51.580;4.578;2024-02-28T10:04:56;102284.34;;;7.51;100.00
69153;BME280;56261;51.580;4.578;2024-02-28T10:07:23;102280.00;;;7.85;100.00
69153;BME280;56261;51.580;4.578;2024-02-28T10:09:48;102278.41;;;7.82;100.00
69153;BME280;56261;51.580;4.578;2024-02-28T10:12:14;102285.19;;;7.86;100.00
69153;BME280;56261;51.580;4.578;2024-02-28T10:14:39;102277.06;;;7.77;100.00
69153;BME280;56261;51.580;4.578;2024-02-28T10:17:05;102279.97;;;7.74;100.00
69153;BME280;56261;51.580;4.578;2024-02-28T10:19:31;102281.38;;;7.66;100.00
69153;BME280;56261;51.580;4.578;2024-02-28T10:21:56;102274.56;;;7.86;100.00
69153;BME280;56261;51.580;4.578;2024-02-28T10:24:24;102283.75;;;7.82;100.00
69153;BME280;56261;51.580;4.578;2024-02-28T10:26:50;102265.19;;;8.05;100.00
69153;BME280;56261;51.580;4.578;2024-02-28T10:29:25;102269.19;;;8.10;100.00
69153;BME280;56261;51.580;4.578;2024-02-28T10:31:59;102265.00;;;8.30;100.00
69153;BME280;56261;51.580;4.578;2024-02-28T10:34:25;102264.13;;;8.30;100.00
69153;BME280;56261;51.580;4.578;2024-02-28T10:36:51;102252.66;;;8.29;100.00
69153;BME280;56261;51.580;4.578;2024-02-28T10:39:17;102258.44;;;8.12;100.00
69153;BME280;56261;51.580;4.578;2024-02-28T10:41:44;102265.94;;;8.29;100.00
69153;BME280;56261;51.580;4.578;2024-02-28T10:44:12;102275.78;;;8.40;100.00
69153;BME280;56261;51.580;4.578;2024-02-28T10:46:38;102258.13;;;8.50;100.00
69153;BME280;56261;51.580;4.578;2024-02-28T10:49:05;102271.94;;;8.56;100.00
69153;BME280;56261;51.580;4.578;2024-02-28T10:51:34;102268.66;;;8.63;100.00
69153;BME280;56261;51.580;4.578;2024-02-28T10:54:11;102271.31;;;8.52;100.00
69153;BME280;56261;51.580;4.578;2024-02-28T10:56:40;102274.81;;;8.86;100.00
69153;BME280;56261;51.580;4.578;2024-02-28T10:59:07;102281.19;;;8.95;100.00
69153;BME280;56261;51.580;4.578;2024-02-28T11:01:37;102275.97;;;9.05;100.00
69153;BME280;56261;51.580;4.578;2024-02-28T11:04:04;102279.50;;;8.94;100.00
69153;BME280;56261;51.580;4.578;2024-02-28T11:06:30;102267.19;;;8.70;100.00
69153;BME280;56261;51.580;4.578;2024-02-28T11:08:59;102263.19;;;8.76;100.00
69153;BME280;56261;51.580;4.578;2024-02-28T11:11:30;102268.28;;;8.79;100.00
69153;BME280;56261;51.580;4.578;2024-02-28T11:13:57;102268.03;;;8.93;100.00
69153;BME280;56261;51.580;4.578;2024-02-28T11:16:33;102264.34;;;9.06;100.00
69153;BME280;56261;51.580;4.578;2024-02-28T11:19:00;102260.03;;;8.93;100.00
69153;BME280;56261;51.580;4.578;2024-02-28T11:21:27;102251.34;;;8.91;100.00
69153;BME280;56261;51.580;4.578;2024-02-28T11:23:57;102250.88;;;8.86;100.00
69153;BME280;56261;51.580;4.578;2024-02-28T11:26:23;102244.72;;;9.18;100.00
69153;BME280;56261;51.580;4.578;2024-02-28T11:28:49;102242.31;;;9.15;100.00
69153;BME280;56261;51.580;4.578;2024-02-28T11:31:15;102241.03;;;8.98;100.00
69153;BME280;56261;51.580;4.578;2024-02-28T11:33:42;102236.50;;;9.21;100.00
69153;BME280;56261;51.580;4.578;2024-02-28T11:36:07;102233.78;;;9.00;100.00
69153;BME280;56261;51.580;4.578;2024-02-28T11:38:35;102238.09;;;9.12;100.00
69153;BME280;56261;51.580;4.578;2024-02-28T11:41:03;102238.38;;;9.30;100.00
69153;BME280;56261;51.580;4.578;2024-02-28T11:43:33;102244.06;;;9.37;100.00
69153;BME280;56261;51.580;4.578;2024-02-28T11:46:02;102241.53;;;9.35;100.00
69153;BME280;56261;51.580;4.578;2024-02-28T11:48:33;102237.25;;;9.12;100.00
69153;BME280;56261;51.580;4.578;2024-02-28T11:50:58;102237.84;;;9.16;100.00
69153;BME280;56261;51.580;4.578;2024-02-28T11:53:25;102233.94;;;9.20;100.00
69153;BME280;56261;51.580;4.578;2024-02-28T11:55:52;102242.53;;;9.55;100.00
69153;BME280;56261;51.580;4.578;2024-02-28T11:58:17;102248.56;;;9.25;100.00
69153;BME280;56261;51.580;4.578;2024-02-28T12:00:47;102235.38;;;9.24;100.00
69153;BME280;56261;51.580;4.578;2024-02-28T12:03:13;102236.00;;;9.27;100.00
69153;BME280;56261;51.580;4.578;2024-02-28T12:05:38;102241.66;;;9.34;100.00
69153;BME280;56261;51.580;4.578;2024-02-28T12:08:04;102233.19;;;9.61;100.00
69153;BME280;56261;51.580;4.578;2024-02-28T12:10:30;102231.63;;;9.80;100.00
69153;BME280;56261;51.580;4.578;2024-02-28T12:13:00;102224.84;;;9.75;100.00
69153;BME280;56261;51.580;4.578;2024-02-28T12:15:28;102230.84;;;9.68;100.00
69153;BME280;56261;51.580;4.578;2024-02-28T12:17:54;102226.06;;;9.50;100.00
69153;BME280;56261;51.580;4.578;2024-02-28T12:20:20;102219.84;;;9.40;100.00
69153;BME280;56261;51.580;4.578;2024-02-28T12:22:45;102218.25;;;9.49;100.00
69153;BME280;56261;51.580;4.578;2024-02-28T12:25:11;102209.66;;;9.45;100.00
69153;BME280;56261;51.580;4.578;2024-02-28T12:27:36;102206.94;;;9.56;100.00
69153;BME280;56261;51.580;4.578;2024-02-28T12:30:02;102208.22;;;9.62;100.00
69153;BME280;56261;51.580;4.578;2024-02-28T12:32:27;102214.34;;;9.74;100.00
69153;BME280;56261;51.580;4.578;2024-02-28T12:34:53;102210.75;;;9.64;100.00
69153;BME280;56261;51.580;4.578;2024-02-28T12:37:19;102213.94;;;9.57;100.00
69153;BME280;56261;51.580;4.578;2024-02-28T12:39:44;102206.47;;;9.51;100.00
69153;BME280;56261;51.580;4.578;2024-02-28T12:42:10;102211.22;;;9.48;100.00
69153;BME280;56261;51.580;4.578;2024-02-28T12:44:35;102209.13;;;9.51;100.00